sensor_id;sensor_type;location;lat;lon;timestamp;temperature;humidity
26049;DHT22;13822;51.568;5.086;2023-01-29T00:00:50;0.60;99.90
26049;DHT22;13822;51.568;5.086;2023-01-29T00:06:06;0.60;99.90
26049;DHT22;13822;51.568;5.086;2023-01-29T00:11:19;0.60;99.90
26049;DHT22;13822;51.568;5.086;2023-01-29T00:16:31;0.50;99.90
26049;DHT22;13822;51.568;5.086;2023-01-29T00:21:41;0.50;99.90
26049;DHT22;13822;51.568;5.086;2023-01-29T00:27:31;0.50;99.90
26049;DHT22;13822;51.568;5.086;2023-01-29T00:38:17;0.50;99.90
26049;DHT22;13822;51.568;5.086;2023-01-29T00:43:31;0.50;99.90
26049;DHT22;13822;51.568;5.086;2023-01-29T00:49:11;0.40;99.90
26049;DHT22;13822;51.568;5.086;2023-01-29T00:54:52;0.40;99.90
26049;DHT22;13822;51.568;5.086;2023-01-29T01:00:58;0.40;99.90
26049;DHT22;13822;51.568;5.086;2023-01-29T01:06:18;0.40;99.90
26049;DHT22;13822;51.568;5.086;2023-01-29T01:11:29;0.40;99.90
26049;DHT22;13822;51.568;5.086;2023-01-29T01:16:51;0.40;99.90
26049;DHT22;13822;51.568;5.086;2023-01-29T01:22:26;0.40;99.90
26049;DHT22;13822;51.568;5.086;2023-01-29T01:28:07;0.40;99.90
26049;DHT22;13822;51.568;5.086;2023-01-29T01:33:29;0.50;99.90
26049;DHT22;13822;51.568;5.086;2023-01-29T01:38:49;0.50;99.90
26049;DHT22;13822;51.568;5.086;2023-01-29T01:43:58;0.50;99.90
26049;DHT22;13822;51.568;5.086;2023-01-29T01:49:26;0.50;99.90
26049;DHT22;13822;51.568;5.086;2023-01-29T01:54:35;0.50;99.90
26049;DHT22;13822;51.568;5.086;2023-01-29T02:05:46;0.60;99.90
26049;DHT22;13822;51.568;5.086;2023-01-29T02:11:07;0.60;99.90
26049;DHT22;13822;51.568;5.086;2023-01-29T02:16:30;0.60;99.90
26049;DHT22;13822;51.568;5.086;2023-01-29T06:27:16;1.60;99.90
26049;DHT22;13822;51.568;5.086;2023-01-29T06:46:14;1.70;99.90
26049;DHT22;13822;51.568;5.086;2023-01-29T06:51:16;1.70;99.90
26049;DHT22;13822;51.568;5.086;2023-01-29T06:56:18;1.80;99.90
26049;DHT22;13822;51.568;5.086;2023-01-29T07:01:20;1.80;99.90
26049;DHT22;13822;51.568;5.086;2023-01-29T07:06:36;1.80;99.90
26049;DHT22;13822;51.568;5.086;2023-01-29T07:11:38;1.80;99.90
26049;DHT22;13822;51.568;5.086;2023-01-29T07:16:43;1.80;99.90
26049;DHT22;13822;51.568;5.086;2023-01-29T07:21:45;1.80;99.90
26049;DHT22;13822;51.568;5.086;2023-01-29T07:26:47;1.80;99.90
26049;DHT22;13822;51.568;5.086;2023-01-29T07:31:49;1.80;99.90
26049;DHT22;13822;51.568;5.086;2023-01-29T07:36:52;1.80;99.90
26049;DHT22;13822;51.568;5.086;2023-01-29T07:41:55;1.80;99.90
26049;DHT22;13822;51.568;5.086;2023-01-29T07:46:57;1.80;99.90
26049;DHT22;13822;51.568;5.086;2023-01-29T07:51:59;1.80;99.90
26049;DHT22;13822;51.568;5.086;2023-01-29T07:57:00;1.80;99.90
26049;DHT22;13822;51.568;5.086;2023-01-29T08:02:02;1.80;99.90
26049;DHT22;13822;51.568;5.086;2023-01-29T08:07:04;1.90;99.90
26049;DHT22;13822;51.568;5.086;2023-01-29T08:12:06;1.80;99.90
26049;DHT22;13822;51.568;5.086;2023-01-29T08:17:08;1.90;99.90
26049;DHT22;13822;51.568;5.086;2023-01-29T08:22:10;1.90;99.90
26049;DHT22;13822;51.568;5.086;2023-01-29T08:27:12;1.90;99.90
26049;DHT22;13822;51.568;5.086;2023-01-29T08:32:14;1.90;99.90
26049;DHT22;13822;51.568;5.086;2023-01-29T08:37:16;1.90;99.90
26049;DHT22;13822;51.568;5.086;2023-01-29T08:42:18;1.90;99.90
26049;DHT22;13822;51.568;5.086;2023-01-29T08:47:20;1.90;99.90
26049;DHT22;13822;51.568;5.086;2023-01-29T08:52:22;1.90;99.90
26049;DHT22;13822;51.568;5.086;2023-01-29T08:57:24;1.90;99.90
26049;DHT22;13822;51.568;5.086;2023-01-29T09:02:25;2.00;99.90
26049;DHT22;13822;51.568;5.086;2023-01-29T09:07:28;2.00;99.90
26049;DHT22;13822;51.568;5.086;2023-01-29T09:12:30;2.00;99.90
26049;DHT22;13822;51.568;5.086;2023-01-29T09:17:32;2.10;99.90
26049;DHT22;13822;51.568;5.086;2023-01-29T09:22:34;2.10;99.90
26049;DHT22;13822;51.568;5.086;2023-01-29T09:27:37;2.10;99.90
26049;DHT22;13822;51.568;5.086;2023-01-29T09:32:39;2.20;99.90
26049;DHT22;13822;51.568;5.086;2023-01-29T09:37:56;2.20;99.90
26049;DHT22;13822;51.568;5.086;2023-01-29T09:43:01;2.20;99.90
26049;DHT22;13822;51.568;5.086;2023-01-29T09:48:07;2.20;99.90
26049;DHT22;13822;51.568;5.086;2023-01-29T09:58:40;2.30;99.90
26049;DHT22;13822;51.568;5.086;2023-01-29T10:15:43;2.40;99.90
26049;DHT22;13822;51.568;5.086;2023-01-29T10:25:58;2.50;99.90
26049;DHT22;13822;51.568;5.086;2023-01-29T10:31:03;2.60;99.90
26049;DHT22;13822;51.568;5.086;2023-01-29T10:36:12;2.60;99.90
26049;DHT22;13822;51.568;5.086;2023-01-29T10:47:17;2.70;99.90
26049;DHT22;13822;51.568;5.086;2023-01-29T11:03:25;2.80;99.90
26049;DHT22;13822;51.568;5.086;2023-01-29T11:08:36;2.90;99.90
26049;DHT22;13822;51.568;5.086;2023-01-29T11:13:52;3.00;99.90
26049;DHT22;13822;51.568;5.086;2023-01-29T11:18:58;3.00;99.90
26049;DHT22;13822;51.568;5.086;2023-01-29T11:24:12;3.20;99.90
26049;DHT22;13822;51.568;5.086;2023-01-29T11:45:27;3.40;99.90
26049;DHT22;13822;51.568;5.086;2023-01-29T11:50:32;3.40;99.90
26049;DHT22;13822;51.568;5.086;2023-01-29T11:55:34;3.50;99.90
26049;DHT22;13822;51.568;5.086;2023-01-29T12:00:51;3.50;99.90
26049;DHT22;13822;51.568;5.086;2023-01-29T12:05:55;3.60;99.90
26049;DHT22;13822;51.568;5.086;2023-01-29T12:16:16;3.70;99.90
26049;DHT22;13822;51.568;5.086;2023-01-29T12:21:23;3.80;99.90
26049;DHT22;13822;51.568;5.086;2023-01-29T12:26:32;3.80;99.90
26049;DHT22;13822;51.568;5.086;2023-01-29T12:37:10;3.80;99.90
26049;DHT22;13822;51.568;5.086;2023-01-29T12:42:29;3.80;99.90
26049;DHT22;13822;51.568;5.086;2023-01-29T12:47:34;3.90;99.90
26049;DHT22;13822;51.568;5.086;2023-01-29T12:52:45;3.90;99.90
26049;DHT22;13822;51.568;5.086;2023-01-29T12:58:01;3.90;99.90
26049;DHT22;13822;51.568;5.086;2023-01-29T13:08:21;4.00;99.90
26049;DHT22;13822;51.568;5.086;2023-01-29T13:13:32;4.00;99.90
26049;DHT22;13822;51.568;5.086;2023-01-29T13:23:55;4.00;99.90
26049;DHT22;13822;51.568;5.086;2023-01-29T13:28:59;4.00;99.90
26049;DHT22;13822;51.568;5.086;2023-01-29T13:44:32;4.10;99.90
26049;DHT22;13822;51.568;5.086;2023-01-29T13:54:48;4.20;99.90
26049;DHT22;13822;51.568;5.086;2023-01-29T13:59:52;4.20;99.90
26049;DHT22;13822;51.568;5.086;2023-01-29T14:10:32;4.30;99.90
26049;DHT22;13822;51.568;5.086;2023-01-29T14:15:36;4.30;99.90
26049;DHT22;13822;51.568;5.086;2023-01-29T14:25:46;4.30;99.90
26049;DHT22;13822;51.568;5.086;2023-01-29T14:30:49;4.30;99.90
26049;DHT22;13822;51.568;5.086;2023-01-29T14:35:52;4.40;99.90
26049;DHT22;13822;51.568;5.086;2023-01-29T14:41:19;4.40;99.90
26049;DHT22;13822;51.568;5.086;2023-01-29T14:51:35;4.40;99.90
26049;DHT22;13822;51.568;5.086;2023-01-29T14:56:52;4.40;99.90
26049;DHT22;13822;51.568;5.086;2023-01-29T15:02:04;4.40;99.90
26049;DHT22;13822;51.568;5.086;2023-01-29T15:07:38;4.50;99.90
26049;DHT22;13822;51.568;5.086;2023-01-29T15:12:47;4.50;99.90
26049;DHT22;13822;51.568;5.086;2023-01-29T15:18:07;4.50;99.90
26049;DHT22;13822;51.568;5.086;2023-01-29T15:23:43;4.40;99.90
26049;DHT22;13822;51.568;5.086;2023-01-29T15:28:38;4.40;99.90
26049;DHT22;13822;51.568;5.086;2023-01-29T15:33:40;4.40;99.90
26049;DHT22;13822;51.568;5.086;2023-01-29T15:38:45;4.40;99.90
26049;DHT22;13822;51.568;5.086;2023-01-29T15:43:48;4.40;99.90
26049;DHT22;13822;51.568;5.086;2023-01-29T15:48:51;4.30;99.90
26049;DHT22;13822;51.568;5.086;2023-01-29T15:53:55;4.30;99.90
26049;DHT22;13822;51.568;5.086;2023-01-29T15:59:01;4.20;99.90
26049;DHT22;13822;51.568;5.086;2023-01-29T16:04:11;4.30;99.90
26049;DHT22;13822;51.568;5.086;2023-01-29T16:09:17;4.20;99.90
26049;DHT22;13822;51.568;5.086;2023-01-29T16:14:22;4.10;99.90
26049;DHT22;13822;51.568;5.086;2023-01-29T16:19:27;4.10;99.90
26049;DHT22;13822;51.568;5.086;2023-01-29T16:24:30;4.10;99.90
26049;DHT22;13822;51.568;5.086;2023-01-29T16:29:33;4.00;99.90
26049;DHT22;13822;51.568;5.086;2023-01-29T16:34:40;4.00;99.90
26049;DHT22;13822;51.568;5.086;2023-01-29T16:39:44;4.00;99.90
26049;DHT22;13822;51.568;5.086;2023-01-29T16:49:57;4.00;99.90
